Time;durP1;ratioP1;P1;durP2;ratioP2;P2;SDS_P1;SDS_P2;PMS_P1;PMS_P2;Temp;Humidity;BMP_temperature;BMP_pressure;BME280_temperature;BME280_humidity;BME280_pressure;Samples;Min_cycle;Max_cycle;Signal;HPM_P1;HPM_P2
2022/03/14 00:01:05;;;;;;;0.77;0.40;;;;;;;21.57;nan;99895.47;5131954;28;20058;-60
2022/03/14 00:03:47;;;;;;;0.22;0.20;;;;;;;21.56;nan;99887.50;5130455;28;20054;-59
2022/03/14 00:06:13;;;;;;;0.20;0.17;;;;;;;21.58;nan;99899.91;5129724;28;20630;-60
2022/03/14 00:08:41;;;;;;;0.50;0.30;;;;;;;21.56;nan;99895.84;5131704;28;20047;-59
2022/03/14 00:11:07;;;;;;;0.35;0.30;;;;;;;21.56;nan;99896.66;5131573;27;20043;-59
2022/03/14 00:13:32;;;;;;;0.30;0.20;;;;;;;21.56;nan;99905.00;5131756;27;20054;-60
2022/03/14 00:15:59;;;;;;;0.45;0.30;;;;;;;21.58;nan;99919.38;5131334;28;20055;-60
2022/03/14 00:18:26;;;;;;;0.28;0.20;;;;;;;21.56;nan;99913.34;5131396;28;20051;-60
2022/03/14 00:20:51;;;;;;;0.30;0.30;;;;;;;21.56;nan;99916.13;5131544;28;20051;-60
2022/03/14 00:23:20;;;;;;;0.40;0.38;;;;;;;21.55;nan;99914.53;5131550;28;20522;-60
2022/03/14 00:25:47;;;;;;;0.22;0.20;;;;;;;21.55;nan;99911.75;5131378;28;20043;-60
2022/03/14 00:28:13;;;;;;;0.45;0.30;;;;;;;21.55;nan;99910.94;5131416;28;20116;-59
2022/03/14 00:30:39;;;;;;;0.30;0.20;;;;;;;21.56;nan;99912.56;5131206;27;20448;-60
2022/03/14 00:33:04;;;;;;;0.17;0.10;;;;;;;21.53;nan;99911.31;5131065;28;20038;-59
2022/03/14 00:35:30;;;;;;;0.28;0.20;;;;;;;21.55;nan;99914.53;5130704;28;20039;-60
2022/03/14 00:37:55;;;;;;;0.30;0.25;;;;;;;21.56;nan;99906.97;5131135;28;20042;-60
2022/03/14 00:40:21;;;;;;;0.45;0.30;;;;;;;21.54;nan;99915.72;5131558;28;20039;-60
2022/03/14 00:42:48;;;;;;;0.20;0.20;;;;;;;21.55;nan;99920.09;5131275;28;20050;-60
2022/03/14 00:45:14;;;;;;;0.52;0.40;;;;;;;21.56;nan;99920.91;5131162;28;20402;-60
2022/03/14 00:47:40;;;;;;;0.10;0.10;;;;;;;21.55;nan;99922.09;5131217;28;20046;-60
2022/03/14 00:50:07;;;;;;;0.25;0.25;;;;;;;21.55;nan;99916.50;5130794;27;20134;-60
2022/03/14 00:52:32;;;;;;;0.20;0.20;;;;;;;21.54;nan;99926.03;5130294;28;20043;-60
2022/03/14 00:54:58;;;;;;;0.15;0.10;;;;;;;21.51;nan;99921.22;5130856;28;20109;-60
2022/03/14 00:57:24;;;;;;;0.30;0.20;;;;;;;21.54;nan;99914.91;5131116;28;20074;-60
2022/03/14 00:59:51;;;;;;;0.20;0.20;;;;;;;21.54;nan;99920.47;5128955;28;20039;-60
2022/03/14 01:02:16;;;;;;;0.38;0.20;;;;;;;21.53;nan;99919.66;5130897;27;20047;-60
2022/03/14 01:04:42;;;;;;;0.20;0.20;;;;;;;21.54;nan;99928.81;5130900;28;20058;-60
2022/03/14 01:07:08;;;;;;;0.43;0.30;;;;;;;21.51;nan;99935.94;5130696;28;20043;-60
2022/03/14 01:09:33;;;;;;;0.50;0.30;;;;;;;21.53;nan;99935.56;5130806;28;20050;-60
2022/03/14 01:11:59;;;;;;;0.10;0.10;;;;;;;21.52;nan;99934.75;5130648;28;20035;-60
2022/03/14 01:14:25;;;;;;;0.50;0.40;;;;;;;21.53;nan;99930.00;5130652;28;20399;-60
2022/03/14 01:16:52;;;;;;;0.30;0.20;;;;;;;21.53;nan;99938.34;5130389;27;20047;-60
2022/03/14 01:19:19;;;;;;;0.32;0.20;;;;;;;21.52;nan;99937.53;5130833;28;20449;-60
2022/03/14 01:21:45;;;;;;;0.45;0.30;;;;;;;21.54;nan;99942.75;5130761;27;20041;-59
2022/03/14 01:24:10;;;;;;;0.63;0.32;;;;;;;21.51;nan;99938.72;5130250;28;20122;-60
2022/03/14 01:26:35;;;;;;;0.63;0.20;;;;;;;21.54;nan;99935.19;5130591;27;20471;-60
2022/03/14 01:29:02;;;;;;;0.73;0.30;;;;;;;21.53;nan;99930.81;5129089;27;20063;-59
2022/03/14 01:31:28;;;;;;;0.20;0.20;;;;;;;21.53;nan;99927.22;5130497;28;20070;-59
2022/03/14 01:33:54;;;;;;;0.45;0.30;;;;;;;21.59;nan;99934.91;5128421;28;20040;-59
2022/03/14 01:36:20;;;;;;;0.20;0.20;;;;;;;22.20;nan;99927.69;5130278;28;20134;-60
2022/03/14 01:38:45;;;;;;;0.35;0.20;;;;;;;22.97;nan;99924.56;5094613;27;20143;-60
2022/03/14 01:41:11;;;;;;;0.30;0.10;;;;;;;22.91;nan;99928.84;5089712;28;20040;-60
2022/03/14 01:43:37;;;;;;;0.20;0.10;;;;;;;22.69;nan;99935.25;5089543;28;20131;-59
2022/03/14 01:46:02;;;;;;;0.13;0.13;;;;;;;22.46;nan;99930.53;5089427;28;20416;-60
2022/03/14 01:48:28;;;;;;;0.30;0.20;;;;;;;22.32;nan;99933.09;5089318;28;20046;-60
2022/03/14 01:50:54;;;;;;;0.38;0.20;;;;;;;22.16;nan;99924.06;5089162;28;20040;-59
2022/03/14 01:53:20;;;;;;;0.52;0.28;;;;;;;22.05;nan;99929.41;5089535;28;20106;-60
2022/03/14 01:55:50;;;;;;;0.52;0.20;;;;;;;21.97;nan;99933.22;5072881;28;20059;-60
2022/03/14 01:58:16;;;;;;;0.22;0.22;;;;;;;21.89;nan;99935.06;5089564;28;20131;-60
2022/03/14 02:00:43;;;;;;;0.30;0.22;;;;;;;21.84;nan;99942.94;5089112;28;20450;-57
2022/03/14 02:03:09;;;;;;;0.25;0.20;;;;;;;21.79;nan;99934.88;5091352;28;20036;-56
2022/03/14 02:05:35;;;;;;;0.32;0.20;;;;;;;21.76;nan;99930.84;5080364;28;20162;-56
2022/03/14 02:08:01;;;;;;;0.40;0.30;;;;;;;21.74;nan;99933.19;5092905;28;20047;-56
2022/03/14 02:10:26;;;;;;;0.47;0.30;;;;;;;21.71;nan;99925.56;5092746;28;20048;-56
2022/03/14 02:12:52;;;;;;;0.28;0.25;;;;;;;21.69;nan;99928.72;5092471;28;20040;-56
2022/03/14 02:15:19;;;;;;;0.50;0.30;;;;;;;21.69;nan;99934.28;5092309;28;20048;-56
2022/03/14 02:17:44;;;;;;;0.20;0.20;;;;;;;21.67;nan;99927.50;5092596;28;20071;-56
2022/03/14 02:20:10;;;;;;;0.20;0.20;;;;;;;21.65;nan;99932.63;5092557;28;20415;-56
2022/03/14 02:22:35;;;;;;;0.17;0.17;;;;;;;21.60;nan;99924.56;5092548;28;20048;-56
2022/03/14 02:25:01;;;;;;;0.32;0.25;;;;;;;21.62;nan;99941.72;5092514;28;20044;-57
2022/03/14 02:27:26;;;;;;;0.17;0.17;;;;;;;21.61;nan;99932.56;5092510;28;20082;-56
2022/03/14 02:29:52;;;;;;;0.50;0.30;;;;;;;21.61;nan;99935.34;5092579;28;20040;-56
2022/03/14 02:32:18;;;;;;;0.20;0.20;;;;;;;21.62;nan;99938.91;5092398;28;20101;-56
2022/03/14 02:34:43;;;;;;;0.47;0.30;;;;;;;21.61;nan;99934.53;5092328;28;20717;-56
2022/03/14 02:37:09;;;;;;;0.70;0.30;;;;;;;21.61;nan;99935.34;5092203;28;20047;-56
2022/03/14 02:39:37;;;;;;;0.35;0.30;;;;;;;21.60;nan;99930.94;5092453;28;20036;-56
2022/03/14 02:42:03;;;;;;;0.32;0.20;;;;;;;21.60;nan;99944.06;5092216;28;20055;-56
2022/03/14 02:44:29;;;;;;;0.35;0.35;;;;;;;21.58;nan;99938.06;5092129;28;20052;-56
2022/03/14 02:46:54;;;;;;;0.20;0.20;;;;;;;21.59;nan;99937.69;5092116;28;20046;-56
2022/03/14 02:49:20;;;;;;;0.38;0.30;;;;;;;21.58;nan;99941.66;5092039;28;20043;-56
2022/03/14 02:51:46;;;;;;;0.70;0.30;;;;;;;21.56;nan;99940.38;5092004;28;20150;-56
2022/03/14 02:54:12;;;;;;;0.35;0.28;;;;;;;21.60;nan;99946.84;5091909;28;20052;-56
2022/03/14 02:56:39;;;;;;;0.30;0.30;;;;;;;21.58;nan;99950.00;5091886;28;20090;-56
2022/03/14 02:59:06;;;;;;;0.82;0.40;;;;;;;21.57;nan;99944.78;5092031;28;20166;-56
2022/03/14 03:01:32;;;;;;;0.13;0.13;;;;;;;21.58;nan;99947.22;5092052;28;20063;-56
2022/03/14 03:03:58;;;;;;;0.60;0.40;;;;;;;21.57;nan;99953.13;5091904;28;20075;-56
2022/03/14 03:06:23;;;;;;;0.40;0.20;;;;;;;21.58;nan;99951.97;5073378;28;20496;-56
2022/03/14 03:08:53;;;;;;;0.73;0.28;;;;;;;21.57;nan;99956.72;5071522;28;20535;-56
2022/03/14 03:11:21;;;;;;;0.30;0.22;;;;;;;21.56;nan;99951.53;5071533;28;20086;-56
2022/03/14 03:13:47;;;;;;;0.28;0.28;;;;;;;21.56;nan;99948.75;5070663;28;20048;-57
2022/03/14 03:16:14;;;;;;;0.30;0.20;;;;;;;21.57;nan;99953.94;5071361;28;20044;-56
2022/03/14 03:18:40;;;;;;;0.40;0.40;;;;;;;21.57;nan;99953.94;5071671;28;20094;-56
2022/03/14 03:21:06;;;;;;;0.30;0.30;;;;;;;21.57;nan;99953.13;5071520;28;20044;-57
2022/03/14 03:23:34;;;;;;;0.65;0.30;;;;;;;21.57;nan;99956.72;5071376;28;20551;-56
2022/03/14 03:26:00;;;;;;;0.95;0.40;;;;;;;21.58;nan;99963.13;5071250;28;20402;-56
2022/03/14 03:28:25;;;;;;;0.63;0.40;;;;;;;21.58;nan;99965.91;5071156;28;20133;-56
2022/03/14 03:30:51;;;;;;;0.20;0.20;;;;;;;21.57;nan;99967.84;5071488;28;20094;-57
2022/03/14 03:33:16;;;;;;;0.40;0.25;;;;;;;21.56;nan;99959.88;5071159;28;20036;-56
2022/03/14 03:35:42;;;;;;;0.30;0.30;;;;;;;21.58;nan;99971.47;5071104;28;20056;-56
2022/03/14 03:38:07;;;;;;;0.20;0.20;;;;;;;21.55;nan;99972.19;5071136;28;20468;-56
2022/03/14 03:40:33;;;;;;;0.40;0.30;;;;;;;21.57;nan;99978.19;5071054;28;20059;-56
2022/03/14 03:42:58;;;;;;;0.30;0.30;;;;;;;21.57;nan;99981.78;5071245;28;20041;-56
2022/03/14 03:45:24;;;;;;;0.60;0.30;;;;;;;21.57;nan;99992.09;5070920;28;20040;-56
2022/03/14 03:47:49;;;;;;;0.20;0.20;;;;;;;21.57;nan;99984.56;5070907;28;20055;-59
2022/03/14 03:50:16;;;;;;;0.43;0.38;;;;;;;21.57;nan;99994.88;5070856;28;20064;-59
2022/03/14 03:52:42;;;;;;;0.30;0.30;;;;;;;21.56;nan;99987.72;5071041;28;20489;-59
2022/03/14 03:55:08;;;;;;;0.20;0.20;;;;;;;21.56;nan;99991.28;5075976;28;20047;-60
2022/03/14 03:57:34;;;;;;;0.38;0.20;;;;;;;21.55;nan;99994.44;5091253;28;20460;-60
2022/03/14 04:00:00;;;;;;;0.30;0.28;;;;;;;21.55;nan;99994.44;5091119;28;20147;-56
2022/03/14 04:02:25;;;;;;;0.30;0.30;;;;;;;21.55;nan;99988.88;5091191;28;20145;-56
2022/03/14 04:04:51;;;;;;;0.40;0.30;;;;;;;21.56;nan;99990.50;5091004;28;20040;-56
2022/03/14 04:07:22;;;;;;;0.28;0.28;;;;;;;21.55;nan;99989.69;5090898;28;20119;-56
2022/03/14 04:09:50;;;;;;;0.10;0.10;;;;;;;21.56;nan;99996.06;5090920;28;20047;-57
2022/03/14 04:12:15;;;;;;;0.30;0.30;;;;;;;21.55;nan;99997.22;5090916;28;20090;-56
2022/03/14 04:14:41;;;;;;;0.20;0.20;;;;;;;21.55;nan;100002.81;5089373;28;20068;-56
2022/03/14 04:17:07;;;;;;;0.10;0.10;;;;;;;21.53;nan;100008.75;5090454;28;20060;-56
2022/03/14 04:19:38;;;;;;;0.32;0.30;;;;;;;21.54;nan;100006.75;5090786;28;20040;-56
2022/03/14 04:22:03;;;;;;;0.30;0.20;;;;;;;21.52;nan;100001.56;5090680;28;20040;-57
2022/03/14 04:24:29;;;;;;;0.20;0.20;;;;;;;21.54;nan;100010.34;5090740;28;20047;-57
2022/03/14 04:26:54;;;;;;;0.40;0.38;;;;;;;21.54;nan;100015.91;5090480;28;20047;-57
2022/03/14 04:29:20;;;;;;;0.40;0.20;;;;;;;21.54;nan;100012.31;5090349;28;20070;-56
2022/03/14 04:31:45;;;;;;;0.20;0.20;;;;;;;21.55;nan;100022.28;5090580;28;20496;-56
2022/03/14 04:34:10;;;;;;;0.28;0.20;;;;;;;21.55;nan;100014.75;5090449;28;20121;-56
2022/03/14 04:36:36;;;;;;;0.25;0.20;;;;;;;21.55;nan;100016.72;5090442;28;20048;-56
2022/03/14 04:39:04;;;;;;;0.45;0.35;;;;;;;21.54;nan;100021.47;5090460;28;20040;-60
2022/03/14 04:41:34;;;;;;;0.22;0.17;;;;;;;21.54;nan;100015.91;5089172;28;20402;-57
2022/03/14 04:44:00;;;;;;;0.38;0.30;;;;;;;21.55;nan;100022.28;5090522;28;20044;-56
2022/03/14 04:46:25;;;;;;;0.47;0.30;;;;;;;21.55;nan;100025.88;5090462;28;20096;-56
2022/03/14 04:48:50;;;;;;;0.22;0.20;;;;;;;21.53;nan;100028.22;5090421;28;20389;-57
2022/03/14 04:51:16;;;;;;;0.30;0.30;;;;;;;21.77;nan;100029.91;5090214;28;20128;-56
2022/03/14 04:53:41;;;;;;;1.02;0.30;;;;;;;22.37;nan;100021.97;5090078;28;20036;-56
2022/03/14 04:56:07;;;;;;;0.25;0.25;;;;;;;23.14;nan;100022.84;5090163;28;20048;-56
2022/03/14 04:58:33;;;;;;;0.30;0.28;;;;;;;23.39;nan;100021.22;5090098;28;20121;-56
2022/03/14 05:00:59;;;;;;;0.45;0.30;;;;;;;23.17;nan;100028.50;5090035;28;20458;-57
2022/03/14 05:03:24;;;;;;;0.30;0.30;;;;;;;22.88;nan;100026.44;5090142;28;20044;-56
2022/03/14 05:05:50;;;;;;;0.20;0.20;;;;;;;22.65;nan;100029.22;5090073;28;20407;-56
2022/03/14 05:08:15;;;;;;;0.50;0.40;;;;;;;22.45;nan;100026.50;5090191;28;20044;-56
2022/03/14 05:10:42;;;;;;;0.57;0.30;;;;;;;22.31;nan;100034.59;5090206;28;20097;-56
2022/03/14 05:13:11;;;;;;;1.05;0.57;;;;;;;22.17;nan;100034.31;5090029;28;20527;-56
2022/03/14 05:15:37;;;;;;;0.40;0.40;;;;;;;22.05;nan;100040.03;5089689;28;20040;-57
2022/03/14 05:18:02;;;;;;;0.30;0.30;;;;;;;21.96;nan;100034.69;5089665;28;20427;-56
2022/03/14 05:20:28;;;;;;;0.60;0.40;;;;;;;21.91;nan;100038.56;5089769;28;20036;-56
2022/03/14 05:22:53;;;;;;;3.30;0.40;;;;;;;21.88;nan;100058.00;5089832;28;20091;-56
2022/03/14 05:25:20;;;;;;;0.30;0.30;;;;;;;21.82;nan;100054.69;5089731;28;20415;-56
2022/03/14 05:27:47;;;;;;;0.55;0.40;;;;;;;21.78;nan;100048.22;5089531;28;20040;-56
2022/03/14 05:30:14;;;;;;;0.45;0.40;;;;;;;21.75;nan;100054.53;5089665;28;20071;-56
2022/03/14 05:32:40;;;;;;;0.20;0.20;;;;;;;21.74;nan;100054.91;5089708;28;20385;-56
2022/03/14 05:35:07;;;;;;;0.63;0.52;;;;;;;21.71;nan;100056.44;5089627;28;20044;-57
2022/03/14 05:37:33;;;;;;;0.32;0.30;;;;;;;21.68;nan;100057.19;5090637;28;20416;-56
2022/03/14 05:39:58;;;;;;;0.88;0.50;;;;;;;21.67;nan;100058.34;5093297;28;20040;-57
2022/03/14 05:42:25;;;;;;;0.52;0.43;;;;;;;21.63;nan;100057.44;5093203;28;20040;-56
2022/03/14 05:44:51;;;;;;;0.40;0.40;;;;;;;21.66;nan;100062.31;5093135;28;20044;-56
2022/03/14 05:47:16;;;;;;;0.60;0.40;;;;;;;21.65;nan;100066.28;5093113;28;20495;-56
2022/03/14 05:49:42;;;;;;;0.57;0.40;;;;;;;21.66;nan;100077.03;5089306;28;20492;-56
2022/03/14 05:52:07;;;;;;;0.30;0.30;;;;;;;21.63;nan;100072.19;5092889;28;20642;-56
2022/03/14 05:54:36;;;;;;;0.77;0.50;;;;;;;21.63;nan;100069.41;5092761;28;20044;-56
2022/03/14 05:57:01;;;;;;;0.40;0.40;;;;;;;21.63;nan;100069.41;5092663;28;20048;-56
2022/03/14 05:59:27;;;;;;;0.28;0.25;;;;;;;21.63;nan;100074.97;5093032;28;20063;-56
2022/03/14 06:01:52;;;;;;;0.57;0.47;;;;;;;21.66;nan;100076.22;5092894;28;20047;-57
2022/03/14 06:04:18;;;;;;;0.40;0.40;;;;;;;21.64;nan;100082.13;5092784;28;20056;-56
2022/03/14 06:06:43;;;;;;;0.40;0.40;;;;;;;21.64;nan;100082.13;5092492;28;20137;-56
2022/03/14 06:09:09;;;;;;;0.50;0.32;;;;;;;21.64;nan;100098.84;5092623;28;20101;-56
2022/03/14 06:11:34;;;;;;;0.50;0.40;;;;;;;21.64;nan;100098.03;5092656;28;20592;-56
2022/03/14 06:14:00;;;;;;;0.70;0.40;;;;;;;21.63;nan;100096.44;5092674;28;20366;-56
2022/03/14 06:16:26;;;;;;;0.40;0.40;;;;;;;21.65;nan;100102.47;5092388;28;21059;-56
2022/03/14 06:18:51;;;;;;;0.40;0.40;;;;;;;21.65;nan;100111.63;5091164;28;20051;-56
2022/03/14 06:21:17;;;;;;;0.55;0.50;;;;;;;21.66;nan;100104.06;5092600;28;20521;-57
2022/03/14 06:23:43;;;;;;;0.70;0.40;;;;;;;21.65;nan;100108.03;5092605;28;20097;-56
2022/03/14 06:26:08;;;;;;;0.40;0.40;;;;;;;21.65;nan;100108.03;5092127;28;20044;-56
2022/03/14 06:28:33;;;;;;;0.40;0.40;;;;;;;21.65;nan;100110.81;5092421;28;20433;-56
2022/03/14 06:30:59;;;;;;;0.63;0.50;;;;;;;21.66;nan;100113.22;5092395;28;20127;-56
2022/03/14 06:33:24;;;;;;;3.03;0.43;;;;;;;21.64;nan;100106.38;5092465;28;20127;-56
2022/03/14 06:35:50;;;;;;;2.38;0.50;;;;;;;21.65;nan;100102.47;5092092;28;20419;-56
2022/03/14 06:38:16;;;;;;;2.28;0.52;;;;;;;21.65;nan;100111.63;5092080;28;20504;-56
2022/03/14 06:40:42;;;;;;;2.95;0.60;;;;;;;21.67;nan;100108.47;5092051;28;20051;-55
2022/03/14 06:43:10;;;;;;;1.95;0.40;;;;;;;21.66;nan;100112.41;5091984;28;20041;-56
2022/03/14 06:45:38;;;;;;;0.95;0.55;;;;;;;21.68;nan;100115.63;5092021;28;20364;-56
2022/03/14 06:48:04;;;;;;;2.83;0.60;;;;;;;21.68;nan;100129.56;5091285;28;20055;-56
2022/03/14 06:50:31;;;;;;;2.35;0.22;;;;;;;21.67;nan;100120.41;5090839;28;20404;-56
2022/03/14 06:52:57;;;;;;;1.45;0.52;;;;;;;21.69;nan;100122.81;5091856;28;20048;-55
2022/03/14 06:55:22;;;;;;;0.77;0.52;;;;;;;21.69;nan;100133.97;5091619;28;20044;-55
2022/03/14 06:57:48;;;;;;;0.65;0.50;;;;;;;21.65;nan;100133.88;5091921;28;20048;-54
2022/03/14 07:00:14;;;;;;;0.75;0.57;;;;;;;21.67;nan;100133.53;5091672;28;20068;-54
2022/03/14 07:02:40;;;;;;;1.73;0.50;;;;;;;21.69;nan;100145.09;5091983;28;20040;-55
2022/03/14 07:05:07;;;;;;;0.85;0.50;;;;;;;21.69;nan;100143.13;5091816;28;20047;-55
2022/03/14 07:07:32;;;;;;;1.40;0.45;;;;;;;21.67;nan;100141.88;5091742;28;20048;-54
2022/03/14 07:09:57;;;;;;;0.93;0.50;;;;;;;21.69;nan;100145.91;5091846;28;20416;-54
2022/03/14 07:12:23;;;;;;;0.55;0.45;;;;;;;21.70;nan;100158.66;5091821;28;20092;-56
2022/03/14 07:14:48;;;;;;;1.23;0.60;;;;;;;21.69;nan;100162.59;5091656;28;20048;-55
2022/03/14 07:17:14;;;;;;;0.95;0.60;;;;;;;21.69;nan;100167.38;5091369;28;20400;-56
2022/03/14 07:19:45;;;;;;;0.65;0.52;;;;;;;21.69;nan;100168.19;5090960;28;20051;-55
2022/03/14 07:22:17;;;;;;;2.38;0.55;;;;;;;21.70;nan;100174.53;5091072;28;20408;-55
2022/03/14 07:24:44;;;;;;;1.27;0.50;;;;;;;21.69;nan;100165.38;5107437;28;20043;-55
2022/03/14 07:27:10;;;;;;;1.35;0.50;;;;;;;21.70;nan;100163.41;5107606;28;20285;-56
2022/03/14 07:29:35;;;;;;;0.68;0.45;;;;;;;21.68;nan;100165.75;5111438;28;20411;-56
2022/03/14 07:32:01;;;;;;;0.60;0.50;;;;;;;21.69;nan;100170.16;5111491;28;20172;-55
2022/03/14 07:34:28;;;;;;;0.45;0.40;;;;;;;21.67;nan;100172.50;5110995;28;20070;-55
2022/03/14 07:36:53;;;;;;;0.77;0.50;;;;;;;21.65;nan;100167.31;5111199;28;20070;-55
2022/03/14 07:39:19;;;;;;;0.82;0.60;;;;;;;21.64;nan;100182.38;5111457;28;20478;-56
2022/03/14 07:41:45;;;;;;;0.65;0.50;;;;;;;21.64;nan;100181.56;5111351;28;20050;-56
2022/03/14 07:44:10;;;;;;;0.90;0.63;;;;;;;21.63;nan;100179.94;5094093;28;20037;-55
2022/03/14 07:46:35;;;;;;;1.30;0.70;;;;;;;21.62;nan;100181.94;5090102;28;20040;-56
2022/03/14 07:49:01;;;;;;;0.85;0.60;;;;;;;21.64;nan;100189.91;5091194;28;20450;-56
2022/03/14 07:51:28;;;;;;;0.73;0.50;;;;;;;21.62;nan;100186.69;5073891;28;20049;-55
2022/03/14 07:53:53;;;;;;;0.90;0.60;;;;;;;21.65;nan;100188.78;5071704;28;20072;-55
2022/03/14 07:56:19;;;;;;;1.30;0.90;;;;;;;21.65;nan;100197.13;5076730;28;20080;-55
2022/03/14 07:58:44;;;;;;;1.40;0.70;;;;;;;21.65;nan;100188.78;5086774;28;20474;-56
2022/03/14 08:01:13;;;;;;;0.95;0.65;;;;;;;21.62;nan;100190.28;5090257;28;20040;-55
2022/03/14 08:03:38;;;;;;;1.67;1.00;;;;;;;21.63;nan;100183.53;5090716;28;20051;-55
2022/03/14 08:06:04;;;;;;;1.30;0.70;;;;;;;21.68;nan;100188.03;5090733;28;20040;-56
2022/03/14 08:08:30;;;;;;;0.77;0.60;;;;;;;21.70;nan;100186.50;5090814;28;20040;-56
2022/03/14 08:10:55;;;;;;;1.15;0.70;;;;;;;21.69;nan;100187.66;5090722;28;20044;-55
2022/03/14 08:13:21;;;;;;;1.33;0.70;;;;;;;21.74;nan;100185.78;5073331;28;20044;-56
2022/03/14 08:15:47;;;;;;;1.02;0.70;;;;;;;21.77;nan;100187.81;5100383;28;20043;-56
2022/03/14 08:18:13;;;;;;;0.75;0.60;;;;;;;21.78;nan;100184.69;5078785;28;20505;-56
2022/03/14 08:20:39;;;;;;;0.90;0.68;;;;;;;21.78;nan;100190.25;5083165;28;20044;-55
2022/03/14 08:23:06;;;;;;;0.95;0.68;;;;;;;21.78;nan;100201.38;5080910;28;20056;-55
2022/03/14 08:25:34;;;;;;;1.05;0.60;;;;;;;21.79;nan;100199.41;5082580;28;20079;-54
2022/03/14 08:27:59;;;;;;;1.45;0.80;;;;;;;21.79;nan;100204.97;5068991;28;20442;-54
2022/03/14 08:30:27;;;;;;;0.80;0.60;;;;;;;21.79;nan;100194.66;5081430;28;20040;-53
2022/03/14 08:32:54;;;;;;;1.27;0.70;;;;;;;21.78;nan;100204.16;5090458;28;20036;-55
2022/03/14 08:35:20;;;;;;;1.60;0.63;;;;;;;21.76;nan;100189.81;5086065;28;20570;-53
2022/03/14 08:37:48;;;;;;;1.00;0.60;;;;;;;21.80;nan;100199.06;5093363;28;20047;-52
2022/03/14 08:40:17;;;;;;;0.93;0.70;;;;;;;21.81;nan;100195.09;5078562;28;20051;-53
2022/03/14 08:42:43;;;;;;;0.88;0.63;;;;;;;21.81;nan;100197.88;5078793;28;20047;-56
2022/03/14 08:45:11;;;;;;;1.23;0.73;;;;;;;21.83;nan;100212.25;5080222;28;20043;-55
2022/03/14 08:47:37;;;;;;;1.88;0.70;;;;;;;21.83;nan;100208.66;5086988;28;20039;-54
2022/03/14 08:50:04;;;;;;;0.80;0.57;;;;;;;21.83;nan;100206.69;5106243;28;20105;-53
2022/03/14 08:52:30;;;;;;;0.93;0.60;;;;;;;21.85;nan;100207.13;5079647;28;20564;-55
2022/03/14 08:54:56;;;;;;;1.80;0.70;;;;;;;21.84;nan;100202.72;5082461;28;20173;-55
2022/03/14 08:57:22;;;;;;;1.17;0.70;;;;;;;21.86;nan;100196.78;5073435;28;20409;-56
2022/03/14 08:59:47;;;;;;;1.00;0.70;;;;;;;21.89;nan;100202.44;5069567;28;20036;-56
2022/03/14 09:02:13;;;;;;;1.25;0.70;;;;;;;21.88;nan;100184.13;5068240;28;20083;-55
2022/03/14 09:04:39;;;;;;;1.10;0.70;;;;;;;21.92;nan;100196.13;5069495;28;20082;-55
2022/03/14 09:07:06;;;;;;;1.40;0.70;;;;;;;21.91;nan;100190.94;5077714;28;20051;-55
2022/03/14 09:09:32;;;;;;;0.93;0.70;;;;;;;21.91;nan;100188.97;5072888;28;20043;-55
2022/03/14 09:11:59;;;;;;;1.45;0.68;;;;;;;21.91;nan;100180.59;5080643;28;20105;-56
2022/03/14 09:14:25;;;;;;;4.03;2.85;;;;;;;21.94;nan;100182.69;5071836;28;20055;-56
2022/03/14 09:16:51;;;;;;;4.50;2.60;;;;;;;21.96;nan;100187.88;5090957;28;20039;-55
2022/03/14 09:19:17;;;;;;;3.95;2.38;;;;;;;21.96;nan;100191.47;5094377;28;20139;-55
2022/03/14 09:21:42;;;;;;;3.05;1.90;;;;;;;21.98;nan;100189.13;5085655;28;20039;-55
2022/03/14 09:24:08;;;;;;;3.33;1.70;;;;;;;21.98;nan;100183.56;5091901;28;20450;-54
2022/03/14 09:26:35;;;;;;;2.75;1.50;;;;;;;22.01;nan;100179.25;5077853;28;20059;-55
2022/03/14 09:29:02;;;;;;;2.38;1.30;;;;;;;22.01;nan;100173.69;5081450;28;20475;-51
2022/03/14 09:31:29;;;;;;;2.38;1.30;;;;;;;22.01;nan;100184.00;5082143;28;20056;-52
2022/03/14 09:33:55;;;;;;;4.97;1.10;;;;;;;22.01;nan;100173.69;5076280;28;20066;-52
2022/03/14 09:36:20;;;;;;;2.40;1.13;;;;;;;22.03;nan;100170.53;5071793;28;20416;-55
2022/03/14 09:38:46;;;;;;;2.20;1.17;;;;;;;22.04;nan;100174.91;5106619;28;20109;-55
2022/03/14 09:41:16;;;;;;;1.60;1.02;;;;;;;22.06;nan;100178.13;5118249;27;20093;-54
2022/03/14 09:43:46;;;;;;;2.22;1.27;;;;;;;22.06;nan;100169.78;5121391;28;20414;-55
2022/03/14 09:46:12;;;;;;;1.77;1.00;;;;;;;22.07;nan;100163.84;5109297;28;20040;-54
2022/03/14 09:48:45;;;;;;;1.40;0.95;;;;;;;22.06;nan;100162.22;5116060;28;20039;-55
2022/03/14 09:51:10;;;;;;;1.65;1.00;;;;;;;22.08;nan;100156.31;5112750;28;20050;-54
2022/03/14 09:53:36;;;;;;;1.73;1.05;;;;;;;22.06;nan;100158.63;5114992;28;20039;-53
2022/03/14 09:56:02;;;;;;;1.30;0.90;;;;;;;22.07;nan;100163.03;5115682;28;20052;-51
2022/03/14 09:58:27;;;;;;;1.45;0.90;;;;;;;22.07;nan;100155.47;5107484;28;20070;-53
2022/03/14 10:00:54;;;;;;;3.67;0.93;;;;;;;22.06;nan;100159.44;5108522;28;20449;-52
2022/03/14 10:03:21;;;;;;;1.35;0.90;;;;;;;22.06;nan;100156.66;5116933;28;20102;-52
2022/03/14 10:05:47;;;;;;;2.50;0.80;;;;;;;22.06;nan;100147.50;5111107;28;20075;-53
2022/03/14 10:08:14;;;;;;;3.03;0.80;;;;;;;21.94;nan;100159.59;5115897;28;20453;-55
2022/03/14 10:10:39;;;;;;;2.45;0.93;;;;;;;21.86;nan;100166.97;5117893;28;20450;-55
2022/03/14 10:13:06;;;;;;;4.43;1.60;;;;;;;21.84;nan;100165.72;5118651;27;20046;-54
2022/03/14 10:15:36;;;;;;;1.75;1.00;;;;;;;21.87;nan;100179.72;5118407;28;20191;-54
2022/03/14 10:18:15;;;;;;;7.03;4.55;;;;;;;22.09;nan;100175.47;5108176;28;20883;-56
2022/03/14 10:21:02;;;;;;;3.85;2.63;;;;;;;22.24;nan;100182.97;5123790;28;20051;-56
2022/03/14 10:23:33;;;;;;;3.60;2.47;;;;;;;22.28;nan;100171.88;5111295;28;20044;-55
2022/03/14 10:26:00;;;;;;;4.22;2.85;;;;;;;22.29;nan;100162.38;5118488;28;20044;-56
2022/03/14 10:28:33;;;;;;;5.25;2.45;;;;;;;22.27;nan;100161.09;5116716;27;20502;-54
2022/03/14 10:31:02;;;;;;;3.25;2.20;;;;;;;22.26;nan;100154.72;5113136;28;20051;-55
2022/03/14 10:33:30;;;;;;;4.18;2.00;;;;;;;22.29;nan;100153.16;5124656;28;20068;-54
2022/03/14 10:35:57;;;;;;;3.28;1.83;;;;;;;22.25;nan;100153.09;5120060;27;20131;-56
2022/03/14 10:38:23;;;;;;;2.70;1.60;;;;;;;22.28;nan;100152.38;5126119;28;20038;-57
2022/03/14 10:40:50;;;;;;;4.25;2.13;;;;;;;22.25;nan;100164.25;5124198;27;20089;-56
2022/03/14 10:43:30;;;;;;;4.15;2.80;;;;;;;22.23;nan;100181.34;5121697;28;20052;-56
2022/03/14 10:45:57;;;;;;;5.70;3.70;;;;;;;22.27;nan;100191.75;5117683;27;20039;-56
2022/03/14 10:48:35;;;;;;;4.38;3.03;;;;;;;22.25;nan;100175.41;5118404;28;20517;-57
2022/03/14 10:51:05;;;;;;;4.18;2.80;;;;;;;22.26;nan;100174.22;5118032;27;21348;-56
2022/03/14 10:53:31;;;;;;;4.63;3.00;;;;;;;22.24;nan;100165.44;5125737;27;20058;-61
2022/03/14 10:56:00;;;;;;;3.92;2.22;;;;;;;22.25;nan;100161.47;5122241;27;20434;-61
2022/03/14 10:58:33;;;;;;;3.65;2.10;;;;;;;22.28;nan;100163.50;5121010;28;20122;-61
2022/03/14 11:01:02;;;;;;;3.53;1.98;;;;;;;22.28;nan;100155.16;5120859;28;20074;-61
2022/03/14 11:03:35;;;;;;;3.30;1.90;;;;;;;22.30;nan;100161.19;5114254;28;20097;-60
2022/03/14 11:06:02;;;;;;;6.57;1.85;;;;;;;22.32;nan;100155.25;5122549;28;20143;-61
2022/03/14 11:08:54;;;;;;;4.65;1.40;;;;;;;22.31;nan;100151.66;5118385;27;20096;-61
2022/03/14 11:11:21;;;;;;;2.78;2.00;;;;;;;22.33;nan;100143.72;5115551;28;20140;-61
2022/03/14 11:13:51;;;;;;;4.22;1.45;;;;;;;22.14;nan;100138.13;5122910;27;20043;-61
2022/03/14 11:16:17;;;;;;;3.25;1.58;;;;;;;22.18;nan;100137.03;5122076;27;20138;-54
2022/03/14 11:18:44;;;;;;;2.55;1.60;;;;;;;22.22;nan;100131.56;5123870;28;20134;-54
2022/03/14 11:21:14;;;;;;;2.50;1.35;;;;;;;22.25;nan;100139.19;5125044;27;20042;-51
2022/03/14 11:23:43;;;;;;;2.20;1.30;;;;;;;22.30;nan;100124.97;5118353;28;20054;-50
2022/03/14 11:26:10;;;;;;;2.00;1.30;;;;;;;22.35;nan;100126.63;5125869;28;20475;-50
2022/03/14 11:28:38;;;;;;;3.22;1.40;;;;;;;22.38;nan;100140.63;5127266;28;20437;-60
2022/03/14 11:31:04;;;;;;;2.10;1.20;;;;;;;22.41;nan;100137.09;5123583;27;20043;-62
2022/03/14 11:33:31;;;;;;;2.67;1.20;;;;;;;22.44;nan;100136.38;5123296;28;20047;-61
2022/03/14 11:35:59;;;;;;;4.38;1.30;;;;;;;22.47;nan;100129.25;5121232;27;20046;-62
2022/03/14 11:38:26;;;;;;;1.80;1.00;;;;;;;22.50;nan;100132.13;5121136;27;20050;-62
2022/03/14 11:40:52;;;;;;;1.73;1.00;;;;;;;22.52;nan;100132.56;5123718;27;20047;-62